sensor_id;sensor_type;location;lat;lon;timestamp;P1;durP1;ratioP1;P2;durP2;ratioP2
12181;SDS011;6154;51.550;12.138;2023-05-23T00:01:31;7.00;;;4.47;;
12181;SDS011;6154;51.550;12.138;2023-05-23T00:07:00;6.55;;;4.95;;
12181;SDS011;6154;51.550;12.138;2023-05-23T00:09:30;7.53;;;5.28;;
12181;SDS011;6154;51.550;12.138;2023-05-23T00:11:58;6.20;;;5.00;;
12181;SDS011;6154;51.550;12.138;2023-05-23T00:19:59;13.20;;;5.60;;
12181;SDS011;6154;51.550;12.138;2023-05-23T00:22:27;7.45;;;4.78;;
12181;SDS011;6154;51.550;12.138;2023-05-23T00:24:56;8.02;;;5.40;;
12181;SDS011;6154;51.550;12.138;2023-05-23T00:36:25;8.30;;;4.25;;
12181;SDS011;6154;51.550;12.138;2023-05-23T00:38:54;7.95;;;5.53;;
12181;SDS011;6154;51.550;12.138;2023-05-23T00:41:30;8.82;;;5.70;;
12181;SDS011;6154;51.550;12.138;2023-05-23T00:43:59;6.15;;;5.05;;
12181;SDS011;6154;51.550;12.138;2023-05-23T00:46:27;7.47;;;5.55;;
12181;SDS011;6154;51.550;12.138;2023-05-23T00:48:57;9.80;;;5.35;;
12181;SDS011;6154;51.550;12.138;2023-05-23T00:51:51;8.38;;;4.93;;
12181;SDS011;6154;51.550;12.138;2023-05-23T00:57:32;8.48;;;5.35;;
12181;SDS011;6154;51.550;12.138;2023-05-23T01:00:01;8.48;;;5.05;;
12181;SDS011;6154;51.550;12.138;2023-05-23T01:02:31;6.50;;;4.70;;
12181;SDS011;6154;51.550;12.138;2023-05-23T01:05:02;8.43;;;4.95;;
12181;SDS011;6154;51.550;12.138;2023-05-23T01:07:31;5.97;;;4.70;;
12181;SDS011;6154;51.550;12.138;2023-05-23T01:09:59;6.18;;;4.85;;
12181;SDS011;6154;51.550;12.138;2023-05-23T01:12:28;7.70;;;4.80;;
12181;SDS011;6154;51.550;12.138;2023-05-23T01:15:05;6.55;;;5.03;;
12181;SDS011;6154;51.550;12.138;2023-05-23T01:17:38;8.13;;;5.78;;
12181;SDS011;6154;51.550;12.138;2023-05-23T01:20:15;8.85;;;5.18;;
12181;SDS011;6154;51.550;12.138;2023-05-23T01:23:11;6.62;;;5.07;;
12181;SDS011;6154;51.550;12.138;2023-05-23T01:25:57;7.32;;;5.25;;
12181;SDS011;6154;51.550;12.138;2023-05-23T01:28:42;7.40;;;5.85;;
12181;SDS011;6154;51.550;12.138;2023-05-23T01:31:14;10.20;;;5.78;;
12181;SDS011;6154;51.550;12.138;2023-05-23T01:33:43;8.82;;;6.05;;
12181;SDS011;6154;51.550;12.138;2023-05-23T01:36:16;11.63;;;6.30;;
12181;SDS011;6154;51.550;12.138;2023-05-23T01:38:45;7.80;;;5.05;;
12181;SDS011;6154;51.550;12.138;2023-05-23T01:41:13;8.00;;;5.68;;
12181;SDS011;6154;51.550;12.138;2023-05-23T01:43:43;10.23;;;5.85;;
12181;SDS011;6154;51.550;12.138;2023-05-23T01:46:12;6.35;;;5.37;;
12181;SDS011;6154;51.550;12.138;2023-05-23T01:48:41;10.85;;;6.65;;
12181;SDS011;6154;51.550;12.138;2023-05-23T01:51:10;8.43;;;6.00;;
12181;SDS011;6154;51.550;12.138;2023-05-23T01:53:39;7.50;;;5.53;;
12181;SDS011;6154;51.550;12.138;2023-05-23T01:56:07;9.70;;;5.62;;
12181;SDS011;6154;51.550;12.138;2023-05-23T01:58:36;9.75;;;5.87;;
12181;SDS011;6154;51.550;12.138;2023-05-23T02:01:06;8.77;;;6.10;;
12181;SDS011;6154;51.550;12.138;2023-05-23T02:03:35;7.87;;;5.72;;
12181;SDS011;6154;51.550;12.138;2023-05-23T02:11:24;7.65;;;5.55;;
12181;SDS011;6154;51.550;12.138;2023-05-23T02:13:52;7.78;;;6.10;;
12181;SDS011;6154;51.550;12.138;2023-05-23T02:38:04;6.70;;;5.65;;
12181;SDS011;6154;51.550;12.138;2023-05-23T02:40:32;6.95;;;5.53;;
12181;SDS011;6154;51.550;12.138;2023-05-23T02:43:00;6.10;;;5.50;;
12181;SDS011;6154;51.550;12.138;2023-05-23T02:45:29;7.97;;;6.00;;
12181;SDS011;6154;51.550;12.138;2023-05-23T02:47:58;7.85;;;5.85;;
12181;SDS011;6154;51.550;12.138;2023-05-23T02:50:27;6.78;;;6.00;;
12181;SDS011;6154;51.550;12.138;2023-05-23T02:53:11;7.45;;;5.85;;
12181;SDS011;6154;51.550;12.138;2023-05-23T02:55:39;8.27;;;5.95;;
12181;SDS011;6154;51.550;12.138;2023-05-23T02:58:18;10.13;;;6.05;;
12181;SDS011;6154;51.550;12.138;2023-05-23T03:01:29;7.25;;;5.32;;
12181;SDS011;6154;51.550;12.138;2023-05-23T03:04:19;8.18;;;5.10;;
12181;SDS011;6154;51.550;12.138;2023-05-23T03:07:07;7.60;;;6.32;;
12181;SDS011;6154;51.550;12.138;2023-05-23T03:09:51;8.20;;;5.22;;
12181;SDS011;6154;51.550;12.138;2023-05-23T03:12:22;6.60;;;5.93;;
12181;SDS011;6154;51.550;12.138;2023-05-23T03:14:52;7.22;;;5.55;;
12181;SDS011;6154;51.550;12.138;2023-05-23T03:17:20;12.57;;;6.00;;
12181;SDS011;6154;51.550;12.138;2023-05-23T03:19:49;7.18;;;5.47;;
12181;SDS011;6154;51.550;12.138;2023-05-23T03:23:12;8.57;;;6.10;;
12181;SDS011;6154;51.550;12.138;2023-05-23T03:25:46;11.65;;;6.32;;
12181;SDS011;6154;51.550;12.138;2023-05-23T03:28:34;8.50;;;5.80;;
12181;SDS011;6154;51.550;12.138;2023-05-23T03:31:18;7.93;;;6.22;;
12181;SDS011;6154;51.550;12.138;2023-05-23T03:33:47;8.23;;;5.50;;
12181;SDS011;6154;51.550;12.138;2023-05-23T03:36:32;9.85;;;5.68;;
12181;SDS011;6154;51.550;12.138;2023-05-23T03:39:02;8.18;;;5.70;;
12181;SDS011;6154;51.550;12.138;2023-05-23T03:41:39;7.65;;;6.18;;
12181;SDS011;6154;51.550;12.138;2023-05-23T03:44:08;9.00;;;6.03;;
12181;SDS011;6154;51.550;12.138;2023-05-23T03:47:04;7.65;;;5.82;;
12181;SDS011;6154;51.550;12.138;2023-05-23T03:49:33;8.57;;;6.22;;
12181;SDS011;6154;51.550;12.138;2023-05-23T03:52:02;8.63;;;6.82;;
12181;SDS011;6154;51.550;12.138;2023-05-23T03:54:36;10.32;;;6.53;;
12181;SDS011;6154;51.550;12.138;2023-05-23T03:57:07;8.38;;;6.80;;
12181;SDS011;6154;51.550;12.138;2023-05-23T04:02:43;10.75;;;7.20;;
12181;SDS011;6154;51.550;12.138;2023-05-23T04:05:14;8.60;;;7.07;;
12181;SDS011;6154;51.550;12.138;2023-05-23T04:07:43;13.23;;;7.78;;
12181;SDS011;6154;51.550;12.138;2023-05-23T04:10:13;13.15;;;8.05;;
12181;SDS011;6154;51.550;12.138;2023-05-23T04:13:00;13.82;;;8.10;;
12181;SDS011;6154;51.550;12.138;2023-05-23T04:15:47;9.82;;;7.12;;
12181;SDS011;6154;51.550;12.138;2023-05-23T04:18:16;21.65;;;8.43;;
12181;SDS011;6154;51.550;12.138;2023-05-23T04:20:45;14.65;;;8.15;;
12181;SDS011;6154;51.550;12.138;2023-05-23T04:23:13;17.37;;;7.85;;
12181;SDS011;6154;51.550;12.138;2023-05-23T04:25:42;12.65;;;8.32;;
12181;SDS011;6154;51.550;12.138;2023-05-23T04:28:13;18.65;;;8.43;;
12181;SDS011;6154;51.550;12.138;2023-05-23T04:31:01;13.43;;;7.22;;
12181;SDS011;6154;51.550;12.138;2023-05-23T04:33:30;12.52;;;8.50;;
12181;SDS011;6154;51.550;12.138;2023-05-23T04:36:01;11.98;;;8.57;;
12181;SDS011;6154;51.550;12.138;2023-05-23T04:38:35;11.12;;;7.40;;
12181;SDS011;6154;51.550;12.138;2023-05-23T04:41:04;12.98;;;7.62;;
12181;SDS011;6154;51.550;12.138;2023-05-23T04:43:39;11.98;;;7.90;;
12181;SDS011;6154;51.550;12.138;2023-05-23T04:46:08;13.50;;;8.35;;
12181;SDS011;6154;51.550;12.138;2023-05-23T04:48:37;11.43;;;8.00;;
12181;SDS011;6154;51.550;12.138;2023-05-23T04:51:05;15.00;;;8.45;;
12181;SDS011;6154;51.550;12.138;2023-05-23T04:53:34;13.93;;;7.78;;
12181;SDS011;6154;51.550;12.138;2023-05-23T04:56:05;11.30;;;7.82;;
12181;SDS011;6154;51.550;12.138;2023-05-23T04:58:35;10.73;;;7.40;;
12181;SDS011;6154;51.550;12.138;2023-05-23T05:01:20;10.25;;;7.78;;
12181;SDS011;6154;51.550;12.138;2023-05-23T05:03:50;9.32;;;7.80;;
12181;SDS011;6154;51.550;12.138;2023-05-23T05:06:19;10.55;;;7.85;;
12181;SDS011;6154;51.550;12.138;2023-05-23T05:08:48;14.00;;;8.90;;
12181;SDS011;6154;51.550;12.138;2023-05-23T05:11:16;15.50;;;9.43;;
12181;SDS011;6154;51.550;12.138;2023-05-23T05:13:48;15.98;;;10.40;;
12181;SDS011;6154;51.550;12.138;2023-05-23T05:16:28;15.63;;;10.93;;
12181;SDS011;6154;51.550;12.138;2023-05-23T05:18:59;19.23;;;11.88;;
12181;SDS011;6154;51.550;12.138;2023-05-23T05:24:20;20.58;;;12.57;;
12181;SDS011;6154;51.550;12.138;2023-05-23T05:26:48;18.25;;;12.75;;
12181;SDS011;6154;51.550;12.138;2023-05-23T05:29:17;23.20;;;14.05;;
12181;SDS011;6154;51.550;12.138;2023-05-23T05:35:00;25.02;;;14.15;;
12181;SDS011;6154;51.550;12.138;2023-05-23T05:37:35;21.02;;;13.23;;
12181;SDS011;6154;51.550;12.138;2023-05-23T05:40:04;24.52;;;13.82;;
12181;SDS011;6154;51.550;12.138;2023-05-23T05:42:34;19.33;;;14.02;;
12181;SDS011;6154;51.550;12.138;2023-05-23T05:45:03;21.52;;;14.30;;
12181;SDS011;6154;51.550;12.138;2023-05-23T05:47:35;22.85;;;15.52;;
12181;SDS011;6154;51.550;12.138;2023-05-23T05:50:45;23.15;;;14.23;;
12181;SDS011;6154;51.550;12.138;2023-05-23T05:53:14;23.05;;;15.10;;
12181;SDS011;6154;51.550;12.138;2023-05-23T05:55:42;26.45;;;15.25;;
12181;SDS011;6154;51.550;12.138;2023-05-23T05:58:10;26.37;;;15.25;;
12181;SDS011;6154;51.550;12.138;2023-05-23T06:00:54;29.37;;;17.73;;
12181;SDS011;6154;51.550;12.138;2023-05-23T06:09:14;22.70;;;12.57;;
12181;SDS011;6154;51.550;12.138;2023-05-23T06:11:44;20.20;;;10.63;;
12181;SDS011;6154;51.550;12.138;2023-05-23T06:14:47;14.77;;;8.68;;
12181;SDS011;6154;51.550;12.138;2023-05-23T06:17:17;13.25;;;7.37;;
12181;SDS011;6154;51.550;12.138;2023-05-23T06:23:05;11.50;;;6.97;;
12181;SDS011;6154;51.550;12.138;2023-05-23T06:25:34;13.90;;;7.00;;
12181;SDS011;6154;51.550;12.138;2023-05-23T06:30:58;12.73;;;6.22;;
12181;SDS011;6154;51.550;12.138;2023-05-23T06:33:27;10.82;;;6.87;;
12181;SDS011;6154;51.550;12.138;2023-05-23T06:36:28;11.30;;;6.53;;
12181;SDS011;6154;51.550;12.138;2023-05-23T06:39:16;10.88;;;6.40;;
12181;SDS011;6154;51.550;12.138;2023-05-23T06:41:45;9.10;;;5.37;;
12181;SDS011;6154;51.550;12.138;2023-05-23T06:50:35;7.30;;;5.07;;
12181;SDS011;6154;51.550;12.138;2023-05-23T06:53:04;9.05;;;5.18;;
12181;SDS011;6154;51.550;12.138;2023-05-23T06:55:34;8.05;;;4.82;;
12181;SDS011;6154;51.550;12.138;2023-05-23T06:58:03;11.12;;;5.30;;
12181;SDS011;6154;51.550;12.138;2023-05-23T07:00:31;6.82;;;5.20;;
12181;SDS011;6154;51.550;12.138;2023-05-23T07:03:00;6.65;;;5.05;;
12181;SDS011;6154;51.550;12.138;2023-05-23T07:05:31;9.70;;;5.80;;
12181;SDS011;6154;51.550;12.138;2023-05-23T07:08:00;8.90;;;6.03;;
12181;SDS011;6154;51.550;12.138;2023-05-23T07:13:16;8.77;;;5.03;;
12181;SDS011;6154;51.550;12.138;2023-05-23T07:15:44;8.48;;;5.15;;
12181;SDS011;6154;51.550;12.138;2023-05-23T07:18:12;7.93;;;5.28;;
12181;SDS011;6154;51.550;12.138;2023-05-23T07:20:41;7.47;;;5.37;;
12181;SDS011;6154;51.550;12.138;2023-05-23T07:23:49;7.37;;;4.30;;
12181;SDS011;6154;51.550;12.138;2023-05-23T07:26:18;7.50;;;4.95;;
12181;SDS011;6154;51.550;12.138;2023-05-23T07:28:48;6.20;;;4.57;;
12181;SDS011;6154;51.550;12.138;2023-05-23T07:31:17;9.07;;;4.50;;
12181;SDS011;6154;51.550;12.138;2023-05-23T07:33:45;7.07;;;4.93;;
12181;SDS011;6154;51.550;12.138;2023-05-23T07:39:14;6.18;;;4.10;;
12181;SDS011;6154;51.550;12.138;2023-05-23T07:41:50;5.97;;;4.18;;
12181;SDS011;6154;51.550;12.138;2023-05-23T07:50:02;6.82;;;3.87;;
12181;SDS011;6154;51.550;12.138;2023-05-23T07:52:31;6.05;;;3.90;;
12181;SDS011;6154;51.550;12.138;2023-05-23T07:55:00;6.75;;;3.28;;
12181;SDS011;6154;51.550;12.138;2023-05-23T07:57:29;5.22;;;3.60;;
12181;SDS011;6154;51.550;12.138;2023-05-23T08:03:25;5.35;;;3.50;;
12181;SDS011;6154;51.550;12.138;2023-05-23T08:06:18;6.15;;;3.92;;
12181;SDS011;6154;51.550;12.138;2023-05-23T08:12:21;5.45;;;3.53;;
12181;SDS011;6154;51.550;12.138;2023-05-23T08:14:50;6.28;;;4.32;;
12181;SDS011;6154;51.550;12.138;2023-05-23T08:20:58;6.50;;;3.40;;
12181;SDS011;6154;51.550;12.138;2023-05-23T08:23:28;4.45;;;3.83;;
12181;SDS011;6154;51.550;12.138;2023-05-23T08:25:59;6.32;;;3.62;;
12181;SDS011;6154;51.550;12.138;2023-05-23T08:28:29;5.68;;;3.72;;
12181;SDS011;6154;51.550;12.138;2023-05-23T08:31:08;8.80;;;4.03;;
12181;SDS011;6154;51.550;12.138;2023-05-23T08:33:44;7.97;;;4.25;;
12181;SDS011;6154;51.550;12.138;2023-05-23T08:36:14;4.45;;;3.47;;
12181;SDS011;6154;51.550;12.138;2023-05-23T08:38:43;7.78;;;3.50;;
12181;SDS011;6154;51.550;12.138;2023-05-23T08:41:14;7.62;;;3.78;;
12181;SDS011;6154;51.550;12.138;2023-05-23T08:46:48;3.80;;;2.78;;
12181;SDS011;6154;51.550;12.138;2023-05-23T08:49:21;4.03;;;3.42;;
12181;SDS011;6154;51.550;12.138;2023-05-23T08:52:06;4.32;;;2.17;;
12181;SDS011;6154;51.550;12.138;2023-05-23T08:54:41;4.00;;;2.37;;
12181;SDS011;6154;51.550;12.138;2023-05-23T08:57:19;3.00;;;1.98;;
12181;SDS011;6154;51.550;12.138;2023-05-23T08:59:49;4.07;;;2.35;;
12181;SDS011;6154;51.550;12.138;2023-05-23T09:02:22;2.80;;;2.10;;
12181;SDS011;6154;51.550;12.138;2023-05-23T09:04:52;3.17;;;1.80;;
12181;SDS011;6154;51.550;12.138;2023-05-23T09:07:22;3.17;;;2.30;;
12181;SDS011;6154;51.550;12.138;2023-05-23T09:09:50;3.42;;;2.50;;
12181;SDS011;6154;51.550;12.138;2023-05-23T09:12:24;3.28;;;2.15;;
12181;SDS011;6154;51.550;12.138;2023-05-23T09:14:52;3.05;;;2.35;;
12181;SDS011;6154;51.550;12.138;2023-05-23T09:17:24;2.45;;;1.90;;
12181;SDS011;6154;51.550;12.138;2023-05-23T09:19:52;8.63;;;2.08;;
12181;SDS011;6154;51.550;12.138;2023-05-23T09:22:24;2.58;;;2.05;;
12181;SDS011;6154;51.550;12.138;2023-05-23T09:28:19;2.92;;;2.00;;
12181;SDS011;6154;51.550;12.138;2023-05-23T09:30:51;2.33;;;2.05;;
12181;SDS011;6154;51.550;12.138;2023-05-23T09:34:01;3.55;;;2.00;;
12181;SDS011;6154;51.550;12.138;2023-05-23T09:36:53;5.45;;;2.12;;
12181;SDS011;6154;51.550;12.138;2023-05-23T09:39:23;3.80;;;2.08;;
12181;SDS011;6154;51.550;12.138;2023-05-23T09:41:52;2.72;;;1.98;;
12181;SDS011;6154;51.550;12.138;2023-05-23T09:44:21;7.80;;;2.10;;
12181;SDS011;6154;51.550;12.138;2023-05-23T09:46:51;4.85;;;2.37;;
12181;SDS011;6154;51.550;12.138;2023-05-23T09:49:21;5.07;;;2.15;;
12181;SDS011;6154;51.550;12.138;2023-05-23T09:51:58;4.37;;;2.25;;
12181;SDS011;6154;51.550;12.138;2023-05-23T09:54:28;4.25;;;2.40;;
12181;SDS011;6154;51.550;12.138;2023-05-23T09:56:56;3.15;;;2.00;;
12181;SDS011;6154;51.550;12.138;2023-05-23T09:59:27;2.55;;;1.87;;
12181;SDS011;6154;51.550;12.138;2023-05-23T10:02:29;2.28;;;1.98;;
12181;SDS011;6154;51.550;12.138;2023-05-23T10:05:59;2.00;;;1.70;;
12181;SDS011;6154;51.550;12.138;2023-05-23T10:15:04;1.90;;;1.17;;
12181;SDS011;6154;51.550;12.138;2023-05-23T10:21:43;5.28;;;1.30;;
12181;SDS011;6154;51.550;12.138;2023-05-23T10:24:23;2.22;;;1.20;;
12181;SDS011;6154;51.550;12.138;2023-05-23T10:27:01;3.60;;;1.45;;
12181;SDS011;6154;51.550;12.138;2023-05-23T10:29:31;6.20;;;1.17;;
12181;SDS011;6154;51.550;12.138;2023-05-23T10:32:01;7.70;;;1.50;;
12181;SDS011;6154;51.550;12.138;2023-05-23T10:34:33;10.00;;;1.90;;
12181;SDS011;6154;51.550;12.138;2023-05-23T10:46:19;3.47;;;1.20;;
12181;SDS011;6154;51.550;12.138;2023-05-23T10:48:53;4.35;;;1.20;;
12181;SDS011;6154;51.550;12.138;2023-05-23T11:00:59;4.28;;;1.00;;
12181;SDS011;6154;51.550;12.138;2023-05-23T11:03:34;6.97;;;0.88;;
12181;SDS011;6154;51.550;12.138;2023-05-23T11:06:36;3.08;;;0.73;;
12181;SDS011;6154;51.550;12.138;2023-05-23T11:09:08;0.75;;;0.75;;
12181;SDS011;6154;51.550;12.138;2023-05-23T11:11:53;0.68;;;0.55;;
12181;SDS011;6154;51.550;12.138;2023-05-23T11:14:33;4.78;;;0.95;;
12181;SDS011;6154;51.550;12.138;2023-05-23T11:17:31;2.00;;;1.00;;
12181;SDS011;6154;51.550;12.138;2023-05-23T11:20:18;6.70;;;1.35;;
12181;SDS011;6154;51.550;12.138;2023-05-23T11:25:38;9.93;;;1.67;;
12181;SDS011;6154;51.550;12.138;2023-05-23T11:28:08;6.40;;;1.40;;
12181;SDS011;6154;51.550;12.138;2023-05-23T11:30:38;5.75;;;1.52;;
12181;SDS011;6154;51.550;12.138;2023-05-23T11:33:14;10.40;;;1.73;;
12181;SDS011;6154;51.550;12.138;2023-05-23T11:35:46;9.57;;;1.35;;
12181;SDS011;6154;51.550;12.138;2023-05-23T11:38:15;5.50;;;1.65;;
12181;SDS011;6154;51.550;12.138;2023-05-23T11:40:45;5.97;;;1.23;;
12181;SDS011;6154;51.550;12.138;2023-05-23T11:43:24;2.40;;;1.50;;
12181;SDS011;6154;51.550;12.138;2023-05-23T11:45:53;8.50;;;1.85;;
12181;SDS011;6154;51.550;12.138;2023-05-23T11:48:43;4.03;;;1.85;;
12181;SDS011;6154;51.550;12.138;2023-05-23T11:51:33;3.22;;;1.77;;
12181;SDS011;6154;51.550;12.138;2023-05-23T11:54:05;4.35;;;1.65;;
12181;SDS011;6154;51.550;12.138;2023-05-23T12:00:02;6.97;;;2.00;;
12181;SDS011;6154;51.550;12.138;2023-05-23T12:02:37;5.85;;;1.58;;
12181;SDS011;6154;51.550;12.138;2023-05-23T12:05:09;3.33;;;1.23;;
12181;SDS011;6154;51.550;12.138;2023-05-23T12:07:43;3.30;;;1.42;;
12181;SDS011;6154;51.550;12.138;2023-05-23T12:10:13;2.58;;;1.10;;
12181;SDS011;6154;51.550;12.138;2023-05-23T12:12:50;2.33;;;1.42;;
12181;SDS011;6154;51.550;12.138;2023-05-23T12:15:23;5.25;;;1.60;;
12181;SDS011;6154;51.550;12.138;2023-05-23T12:17:53;4.07;;;1.30;;
12181;SDS011;6154;51.550;12.138;2023-05-23T12:20:23;2.35;;;1.42;;
12181;SDS011;6154;51.550;12.138;2023-05-23T12:22:54;2.03;;;1.65;;
12181;SDS011;6154;51.550;12.138;2023-05-23T12:25:24;5.22;;;1.80;;
12181;SDS011;6154;51.550;12.138;2023-05-23T12:27:55;1.70;;;1.60;;
12181;SDS011;6154;51.550;12.138;2023-05-23T12:30:23;2.83;;;2.00;;
12181;SDS011;6154;51.550;12.138;2023-05-23T12:32:52;3.28;;;2.33;;
12181;SDS011;6154;51.550;12.138;2023-05-23T12:35:24;3.42;;;2.20;;
12181;SDS011;6154;51.550;12.138;2023-05-23T12:37:52;2.40;;;2.05;;
12181;SDS011;6154;51.550;12.138;2023-05-23T12:40:24;2.12;;;1.90;;
12181;SDS011;6154;51.550;12.138;2023-05-23T12:42:57;2.60;;;2.08;;
12181;SDS011;6154;51.550;12.138;2023-05-23T12:45:30;2.15;;;1.85;;
12181;SDS011;6154;51.550;12.138;2023-05-23T12:50:41;2.33;;;1.80;;
12181;SDS011;6154;51.550;12.138;2023-05-23T12:53:10;4.03;;;1.73;;
12181;SDS011;6154;51.550;12.138;2023-05-23T12:55:38;1.83;;;1.55;;
12181;SDS011;6154;51.550;12.138;2023-05-23T12:58:25;2.10;;;1.90;;
12181;SDS011;6154;51.550;12.138;2023-05-23T13:00:57;4.03;;;1.90;;
12181;SDS011;6154;51.550;12.138;2023-05-23T13:03:27;3.95;;;1.98;;
12181;SDS011;6154;51.550;12.138;2023-05-23T13:11:57;5.07;;;1.90;;
12181;SDS011;6154;51.550;12.138;2023-05-23T13:14:26;2.15;;;1.80;;
12181;SDS011;6154;51.550;12.138;2023-05-23T13:16:54;1.73;;;1.40;;
12181;SDS011;6154;51.550;12.138;2023-05-23T13:19:23;2.22;;;1.75;;
12181;SDS011;6154;51.550;12.138;2023-05-23T13:21:54;3.78;;;1.65;;
12181;SDS011;6154;51.550;12.138;2023-05-23T13:24:22;1.75;;;1.60;;
12181;SDS011;6154;51.550;12.138;2023-05-23T13:26:51;2.42;;;1.70;;
12181;SDS011;6154;51.550;12.138;2023-05-23T13:29:21;1.58;;;1.48;;
12181;SDS011;6154;51.550;12.138;2023-05-23T13:31:49;3.67;;;2.10;;
12181;SDS011;6154;51.550;12.138;2023-05-23T13:34:19;3.05;;;2.30;;
12181;SDS011;6154;51.550;12.138;2023-05-23T13:36:57;4.20;;;2.50;;
12181;SDS011;6154;51.550;12.138;2023-05-23T13:39:25;3.97;;;2.67;;
12181;SDS011;6154;51.550;12.138;2023-05-23T13:42:06;3.25;;;2.78;;
12181;SDS011;6154;51.550;12.138;2023-05-23T13:44:36;2.75;;;2.45;;
12181;SDS011;6154;51.550;12.138;2023-05-23T13:47:09;3.15;;;2.62;;
12181;SDS011;6154;51.550;12.138;2023-05-23T13:49:39;3.47;;;2.87;;
12181;SDS011;6154;51.550;12.138;2023-05-23T13:52:08;4.07;;;2.58;;
12181;SDS011;6154;51.550;12.138;2023-05-23T13:54:36;4.87;;;2.12;;
12181;SDS011;6154;51.550;12.138;2023-05-23T13:57:06;6.15;;;1.95;;
12181;SDS011;6154;51.550;12.138;2023-05-23T13:59:34;3.30;;;2.45;;
12181;SDS011;6154;51.550;12.138;2023-05-23T14:02:04;2.97;;;2.22;;
12181;SDS011;6154;51.550;12.138;2023-05-23T14:04:34;3.78;;;2.40;;
12181;SDS011;6154;51.550;12.138;2023-05-23T14:07:02;4.30;;;2.47;;
12181;SDS011;6154;51.550;12.138;2023-05-23T14:09:33;3.17;;;2.42;;
12181;SDS011;6154;51.550;12.138;2023-05-23T14:12:02;2.75;;;2.03;;
12181;SDS011;6154;51.550;12.138;2023-05-23T14:14:31;2.95;;;1.85;;
12181;SDS011;6154;51.550;12.138;2023-05-23T14:17:00;2.65;;;1.80;;
12181;SDS011;6154;51.550;12.138;2023-05-23T14:19:29;6.22;;;1.90;;
12181;SDS011;6154;51.550;12.138;2023-05-23T14:21:57;1.50;;;1.40;;
12181;SDS011;6154;51.550;12.138;2023-05-23T14:24:25;3.12;;;1.20;;
12181;SDS011;6154;51.550;12.138;2023-05-23T14:26:54;2.15;;;1.20;;
12181;SDS011;6154;51.550;12.138;2023-05-23T14:29:23;1.42;;;1.25;;
12181;SDS011;6154;51.550;12.138;2023-05-23T14:31:51;2.83;;;1.33;;
12181;SDS011;6154;51.550;12.138;2023-05-23T14:34:22;2.72;;;0.90;;
12181;SDS011;6154;51.550;12.138;2023-05-23T14:36:51;1.85;;;1.30;;
12181;SDS011;6154;51.550;12.138;2023-05-23T14:39:20;1.37;;;0.85;;
12181;SDS011;6154;51.550;12.138;2023-05-23T14:41:48;2.08;;;1.33;;
12181;SDS011;6154;51.550;12.138;2023-05-23T14:44:16;1.65;;;0.90;;
12181;SDS011;6154;51.550;12.138;2023-05-23T14:46:45;2.28;;;0.80;;
12181;SDS011;6154;51.550;12.138;2023-05-23T14:49:15;0.95;;;0.95;;
12181;SDS011;6154;51.550;12.138;2023-05-23T14:51:45;4.53;;;1.33;;
12181;SDS011;6154;51.550;12.138;2023-05-23T14:54:18;2.40;;;1.10;;
12181;SDS011;6154;51.550;12.138;2023-05-23T14:56:48;2.65;;;1.10;;
12181;SDS011;6154;51.550;12.138;2023-05-23T14:59:19;1.62;;;0.90;;
12181;SDS011;6154;51.550;12.138;2023-05-23T15:01:47;2.55;;;1.12;;
12181;SDS011;6154;51.550;12.138;2023-05-23T15:04:16;5.05;;;1.10;;
12181;SDS011;6154;51.550;12.138;2023-05-23T15:06:46;1.80;;;1.02;;
12181;SDS011;6154;51.550;12.138;2023-05-23T15:09:19;3.45;;;1.17;;
12181;SDS011;6154;51.550;12.138;2023-05-23T15:11:53;1.80;;;1.05;;
12181;SDS011;6154;51.550;12.138;2023-05-23T15:14:21;3.58;;;1.17;;
12181;SDS011;6154;51.550;12.138;2023-05-23T15:16:55;1.80;;;1.30;;
12181;SDS011;6154;51.550;12.138;2023-05-23T15:19:23;3.25;;;1.42;;
12181;SDS011;6154;51.550;12.138;2023-05-23T15:21:53;5.10;;;1.87;;
12181;SDS011;6154;51.550;12.138;2023-05-23T15:24:21;6.82;;;2.05;;
12181;SDS011;6154;51.550;12.138;2023-05-23T15:26:49;5.57;;;2.25;;
12181;SDS011;6154;51.550;12.138;2023-05-23T15:29:17;2.85;;;2.28;;
12181;SDS011;6154;51.550;12.138;2023-05-23T15:31:45;6.82;;;2.00;;
12181;SDS011;6154;51.550;12.138;2023-05-23T15:34:14;4.45;;;2.00;;
12181;SDS011;6154;51.550;12.138;2023-05-23T15:36:42;5.90;;;2.70;;
12181;SDS011;6154;51.550;12.138;2023-05-23T15:39:12;8.27;;;2.53;;
12181;SDS011;6154;51.550;12.138;2023-05-23T15:41:40;6.65;;;2.60;;
12181;SDS011;6154;51.550;12.138;2023-05-23T15:44:10;5.70;;;2.78;;
12181;SDS011;6154;51.550;12.138;2023-05-23T15:46:40;5.35;;;2.58;;
12181;SDS011;6154;51.550;12.138;2023-05-23T15:49:09;7.00;;;2.58;;
12181;SDS011;6154;51.550;12.138;2023-05-23T15:51:52;11.57;;;3.08;;
12181;SDS011;6154;51.550;12.138;2023-05-23T15:54:23;6.82;;;2.90;;
12181;SDS011;6154;51.550;12.138;2023-05-23T15:56:51;16.08;;;3.42;;
12181;SDS011;6154;51.550;12.138;2023-05-23T15:59:19;9.32;;;2.97;;
12181;SDS011;6154;51.550;12.138;2023-05-23T16:01:48;7.03;;;2.60;;
12181;SDS011;6154;51.550;12.138;2023-05-23T16:04:16;5.00;;;2.40;;
12181;SDS011;6154;51.550;12.138;2023-05-23T16:06:44;7.28;;;2.87;;
12181;SDS011;6154;51.550;12.138;2023-05-23T16:09:12;6.62;;;2.62;;
12181;SDS011;6154;51.550;12.138;2023-05-23T16:11:50;8.38;;;3.10;;
12181;SDS011;6154;51.550;12.138;2023-05-23T16:14:18;4.53;;;2.20;;
12181;SDS011;6154;51.550;12.138;2023-05-23T16:16:46;5.90;;;2.03;;
12181;SDS011;6154;51.550;12.138;2023-05-23T16:19:15;6.68;;;3.30;;
12181;SDS011;6154;51.550;12.138;2023-05-23T16:21:43;3.90;;;2.10;;
12181;SDS011;6154;51.550;12.138;2023-05-23T16:24:11;7.62;;;2.30;;
12181;SDS011;6154;51.550;12.138;2023-05-23T16:26:44;5.75;;;2.58;;
12181;SDS011;6154;51.550;12.138;2023-05-23T16:31:46;4.47;;;2.30;;
12181;SDS011;6154;51.550;12.138;2023-05-23T16:37:05;5.72;;;2.25;;
12181;SDS011;6154;51.550;12.138;2023-05-23T16:39:33;7.57;;;2.10;;
12181;SDS011;6154;51.550;12.138;2023-05-23T16:42:03;11.65;;;3.05;;
12181;SDS011;6154;51.550;12.138;2023-05-23T16:44:31;6.15;;;2.87;;
12181;SDS011;6154;51.550;12.138;2023-05-23T16:47:00;5.35;;;2.45;;
12181;SDS011;6154;51.550;12.138;2023-05-23T16:49:39;7.80;;;2.72;;
12181;SDS011;6154;51.550;12.138;2023-05-23T16:52:29;6.00;;;1.98;;
12181;SDS011;6154;51.550;12.138;2023-05-23T16:54:57;8.35;;;2.45;;
12181;SDS011;6154;51.550;12.138;2023-05-23T16:57:26;7.15;;;2.20;;
12181;SDS011;6154;51.550;12.138;2023-05-23T16:59:55;7.60;;;1.90;;
12181;SDS011;6154;51.550;12.138;2023-05-23T17:02:23;9.82;;;2.20;;
12181;SDS011;6154;51.550;12.138;2023-05-23T17:04:51;5.18;;;1.62;;
12181;SDS011;6154;51.550;12.138;2023-05-23T17:07:21;5.82;;;2.03;;
12181;SDS011;6154;51.550;12.138;2023-05-23T17:09:49;4.35;;;1.77;;
12181;SDS011;6154;51.550;12.138;2023-05-23T17:12:18;5.22;;;1.73;;
12181;SDS011;6154;51.550;12.138;2023-05-23T17:14:48;8.68;;;2.15;;
12181;SDS011;6154;51.550;12.138;2023-05-23T17:17:16;6.32;;;1.45;;
12181;SDS011;6154;51.550;12.138;2023-05-23T17:19:44;5.90;;;2.00;;
12181;SDS011;6154;51.550;12.138;2023-05-23T17:22:15;6.50;;;1.52;;
12181;SDS011;6154;51.550;12.138;2023-05-23T17:24:43;9.27;;;1.77;;
12181;SDS011;6154;51.550;12.138;2023-05-23T17:27:11;6.00;;;1.58;;
12181;SDS011;6154;51.550;12.138;2023-05-23T17:29:40;4.05;;;1.70;;
12181;SDS011;6154;51.550;12.138;2023-05-23T17:32:09;7.75;;;2.00;;
12181;SDS011;6154;51.550;12.138;2023-05-23T17:34:38;10.07;;;2.55;;
12181;SDS011;6154;51.550;12.138;2023-05-23T17:37:06;6.10;;;1.70;;
12181;SDS011;6154;51.550;12.138;2023-05-23T17:39:34;3.80;;;1.45;;
12181;SDS011;6154;51.550;12.138;2023-05-23T17:42:03;3.90;;;1.60;;
12181;SDS011;6154;51.550;12.138;2023-05-23T17:44:41;6.40;;;2.00;;
12181;SDS011;6154;51.550;12.138;2023-05-23T17:47:11;6.43;;;2.00;;
12181;SDS011;6154;51.550;12.138;2023-05-23T17:49:43;2.80;;;1.65;;
12181;SDS011;6154;51.550;12.138;2023-05-23T17:52:11;5.53;;;1.73;;